Main page
METAR-TAF:

METAR-TAF

Airports :

Milan, Italy

Linate Airport

latitude: 45-26N, longitude: 009-17E, elevation: 107 m

Current weather observation

The report was made 15 minutes ago, at 11:20 UTC
Wind 6 kt from the South/Southwest, varying between South/Southeast and West
Temperature 24°C
Humidity 50%
Pressure 1011 hPa
Visibility 10 km or more
Few clouds at a height of 1500 ft

METAR: LIML 261120Z 21006KT 160V260 9999 FEW015 24/13 Q1011 NOSIG

Time: 13:35 (11:35 UTC)

Forecast

The report was made 35 minutes ago, at 11:00 UTC
Forecast valid from 26 at 12 UTC to 27 at 12 UTC
Wind 5 kt from variable directions
Visibility 10 km or more
no clouds below 1500 m and no cumulonimbus

TAF: LIML 261100Z 2612/2712 VRB05KT CAVOK

Weather observations and forecasts of more than 4000 airports (METAR and TAF reports).

The available stations are represented by yellow and red dots on the map.

Hover mouse over dot to see the name of the station.

Then click to see weather observations and forecasts.

To change the map : click on the green buttons with a black cross to zoom in, on the green button with a dash to zoom out, or on the green arrows for adjacent maps.


METAR-TAF: